sensor_id;sensor_type;location;lat;lon;timestamp;P1;durP1;ratioP1;P2;durP2;ratioP2
48805;SDS011;34625;47.176;27.548;2024-01-30T00:02:24;31.23;;;19.30;;
48805;SDS011;34625;47.176;27.548;2024-01-30T00:04:50;30.48;;;19.13;;
48805;SDS011;34625;47.176;27.548;2024-01-30T00:07:16;35.28;;;19.67;;
48805;SDS011;34625;47.176;27.548;2024-01-30T00:09:43;33.90;;;19.08;;
48805;SDS011;34625;47.176;27.548;2024-01-30T00:12:11;29.70;;;19.10;;
48805;SDS011;34625;47.176;27.548;2024-01-30T00:14:37;33.47;;;19.17;;
48805;SDS011;34625;47.176;27.548;2024-01-30T00:17:03;29.45;;;19.17;;
48805;SDS011;34625;47.176;27.548;2024-01-30T00:19:29;35.13;;;19.40;;
48805;SDS011;34625;47.176;27.548;2024-01-30T00:21:55;27.70;;;18.08;;
48805;SDS011;34625;47.176;27.548;2024-01-30T00:24:21;35.28;;;20.15;;
48805;SDS011;34625;47.176;27.548;2024-01-30T00:26:47;28.75;;;17.80;;
48805;SDS011;34625;47.176;27.548;2024-01-30T00:29:13;29.08;;;17.02;;
48805;SDS011;34625;47.176;27.548;2024-01-30T00:31:45;30.20;;;18.50;;
48805;SDS011;34625;47.176;27.548;2024-01-30T00:34:11;34.58;;;18.38;;
48805;SDS011;34625;47.176;27.548;2024-01-30T00:36:37;26.17;;;18.02;;
48805;SDS011;34625;47.176;27.548;2024-01-30T00:39:03;29.33;;;17.90;;
48805;SDS011;34625;47.176;27.548;2024-01-30T00:41:34;28.38;;;17.75;;
48805;SDS011;34625;47.176;27.548;2024-01-30T00:44:00;30.65;;;18.70;;
48805;SDS011;34625;47.176;27.548;2024-01-30T00:46:26;29.38;;;17.23;;
48805;SDS011;34625;47.176;27.548;2024-01-30T00:48:53;35.95;;;19.92;;
48805;SDS011;34625;47.176;27.548;2024-01-30T00:51:19;33.88;;;20.00;;
48805;SDS011;34625;47.176;27.548;2024-01-30T00:53:45;30.67;;;19.27;;
48805;SDS011;34625;47.176;27.548;2024-01-30T00:56:11;32.35;;;19.38;;
48805;SDS011;34625;47.176;27.548;2024-01-30T00:58:37;34.13;;;19.08;;
48805;SDS011;34625;47.176;27.548;2024-01-30T01:01:03;37.00;;;19.58;;
48805;SDS011;34625;47.176;27.548;2024-01-30T01:03:29;33.70;;;20.05;;
48805;SDS011;34625;47.176;27.548;2024-01-30T01:05:55;37.45;;;19.77;;
48805;SDS011;34625;47.176;27.548;2024-01-30T01:08:21;30.60;;;19.25;;
48805;SDS011;34625;47.176;27.548;2024-01-30T01:10:47;36.97;;;20.13;;
48805;SDS011;34625;47.176;27.548;2024-01-30T01:13:14;32.28;;;17.85;;
48805;SDS011;34625;47.176;27.548;2024-01-30T01:15:40;30.10;;;18.40;;
48805;SDS011;34625;47.176;27.548;2024-01-30T01:18:06;31.58;;;19.67;;
48805;SDS011;34625;47.176;27.548;2024-01-30T01:20:32;33.28;;;19.08;;
48805;SDS011;34625;47.176;27.548;2024-01-30T01:22:58;28.73;;;17.05;;
48805;SDS011;34625;47.176;27.548;2024-01-30T01:25:24;29.88;;;18.45;;
48805;SDS011;34625;47.176;27.548;2024-01-30T01:27:50;26.13;;;18.52;;
48805;SDS011;34625;47.176;27.548;2024-01-30T01:30:18;25.38;;;16.65;;
48805;SDS011;34625;47.176;27.548;2024-01-30T01:32:49;29.02;;;17.85;;
48805;SDS011;34625;47.176;27.548;2024-01-30T01:35:21;30.83;;;17.00;;
48805;SDS011;34625;47.176;27.548;2024-01-30T01:37:50;29.08;;;17.80;;
48805;SDS011;34625;47.176;27.548;2024-01-30T01:40:23;30.52;;;17.45;;
48805;SDS011;34625;47.176;27.548;2024-01-30T01:42:50;33.78;;;18.52;;
48805;SDS011;34625;47.176;27.548;2024-01-30T01:45:18;29.77;;;18.02;;
48805;SDS011;34625;47.176;27.548;2024-01-30T01:47:45;29.10;;;16.95;;
48805;SDS011;34625;47.176;27.548;2024-01-30T01:50:14;29.58;;;18.92;;
48805;SDS011;34625;47.176;27.548;2024-01-30T01:52:44;32.45;;;20.33;;
48805;SDS011;34625;47.176;27.548;2024-01-30T01:55:16;33.75;;;19.42;;
48805;SDS011;34625;47.176;27.548;2024-01-30T01:57:47;35.75;;;19.95;;
48805;SDS011;34625;47.176;27.548;2024-01-30T02:00:13;32.30;;;19.27;;
48805;SDS011;34625;47.176;27.548;2024-01-30T02:02:41;36.65;;;20.02;;
48805;SDS011;34625;47.176;27.548;2024-01-30T02:05:09;32.75;;;19.80;;
48805;SDS011;34625;47.176;27.548;2024-01-30T02:07:35;31.08;;;19.17;;
48805;SDS011;34625;47.176;27.548;2024-01-30T02:10:01;31.77;;;18.77;;
48805;SDS011;34625;47.176;27.548;2024-01-30T02:12:29;30.75;;;19.00;;
48805;SDS011;34625;47.176;27.548;2024-01-30T02:14:55;31.88;;;18.70;;
48805;SDS011;34625;47.176;27.548;2024-01-30T02:17:21;32.40;;;18.70;;
48805;SDS011;34625;47.176;27.548;2024-01-30T02:19:49;30.73;;;18.73;;
48805;SDS011;34625;47.176;27.548;2024-01-30T02:22:15;32.05;;;18.83;;
48805;SDS011;34625;47.176;27.548;2024-01-30T02:24:41;28.02;;;18.30;;
48805;SDS011;34625;47.176;27.548;2024-01-30T02:27:07;29.05;;;17.90;;
48805;SDS011;34625;47.176;27.548;2024-01-30T02:29:33;31.00;;;18.67;;
48805;SDS011;34625;47.176;27.548;2024-01-30T02:31:59;33.05;;;19.30;;
48805;SDS011;34625;47.176;27.548;2024-01-30T02:34:25;39.15;;;19.88;;
48805;SDS011;34625;47.176;27.548;2024-01-30T02:36:52;35.95;;;19.45;;
48805;SDS011;34625;47.176;27.548;2024-01-30T02:39:18;30.10;;;19.02;;
48805;SDS011;34625;47.176;27.548;2024-01-30T02:41:44;34.30;;;18.38;;
48805;SDS011;34625;47.176;27.548;2024-01-30T02:44:10;31.55;;;18.42;;
48805;SDS011;34625;47.176;27.548;2024-01-30T02:46:36;26.38;;;16.30;;
48805;SDS011;34625;47.176;27.548;2024-01-30T02:49:02;25.25;;;16.23;;
48805;SDS011;34625;47.176;27.548;2024-01-30T02:51:28;27.13;;;17.25;;
48805;SDS011;34625;47.176;27.548;2024-01-30T02:53:54;27.73;;;17.75;;
48805;SDS011;34625;47.176;27.548;2024-01-30T02:56:20;28.88;;;17.77;;
48805;SDS011;34625;47.176;27.548;2024-01-30T02:58:47;28.33;;;18.02;;
48805;SDS011;34625;47.176;27.548;2024-01-30T03:01:13;36.33;;;19.45;;
48805;SDS011;34625;47.176;27.548;2024-01-30T03:03:39;30.40;;;18.10;;
48805;SDS011;34625;47.176;27.548;2024-01-30T03:06:06;32.72;;;18.38;;
48805;SDS011;34625;47.176;27.548;2024-01-30T03:08:32;28.58;;;16.88;;
48805;SDS011;34625;47.176;27.548;2024-01-30T03:11:00;27.30;;;17.88;;
48805;SDS011;34625;47.176;27.548;2024-01-30T03:13:26;27.13;;;19.02;;
48805;SDS011;34625;47.176;27.548;2024-01-30T03:15:53;32.53;;;18.77;;
48805;SDS011;34625;47.176;27.548;2024-01-30T03:18:19;27.95;;;16.98;;
48805;SDS011;34625;47.176;27.548;2024-01-30T03:20:45;28.42;;;18.00;;
48805;SDS011;34625;47.176;27.548;2024-01-30T03:23:11;28.85;;;17.77;;
48805;SDS011;34625;47.176;27.548;2024-01-30T03:25:37;30.63;;;17.63;;
48805;SDS011;34625;47.176;27.548;2024-01-30T03:28:03;29.40;;;18.42;;
48805;SDS011;34625;47.176;27.548;2024-01-30T03:30:29;32.47;;;18.10;;
48805;SDS011;34625;47.176;27.548;2024-01-30T03:32:56;33.75;;;18.75;;
48805;SDS011;34625;47.176;27.548;2024-01-30T03:35:22;29.50;;;18.05;;
48805;SDS011;34625;47.176;27.548;2024-01-30T03:37:48;31.08;;;19.67;;
48805;SDS011;34625;47.176;27.548;2024-01-30T03:40:14;32.38;;;19.58;;
48805;SDS011;34625;47.176;27.548;2024-01-30T03:42:40;29.55;;;18.90;;
48805;SDS011;34625;47.176;27.548;2024-01-30T03:45:07;29.80;;;17.08;;
48805;SDS011;34625;47.176;27.548;2024-01-30T03:47:33;31.35;;;17.15;;
48805;SDS011;34625;47.176;27.548;2024-01-30T03:49:59;23.17;;;15.88;;
48805;SDS011;34625;47.176;27.548;2024-01-30T03:52:25;24.73;;;14.68;;
48805;SDS011;34625;47.176;27.548;2024-01-30T03:54:51;24.92;;;14.32;;
48805;SDS011;34625;47.176;27.548;2024-01-30T03:57:17;27.60;;;16.60;;
48805;SDS011;34625;47.176;27.548;2024-01-30T03:59:43;26.88;;;16.27;;
48805;SDS011;34625;47.176;27.548;2024-01-30T04:02:10;28.67;;;16.58;;
48805;SDS011;34625;47.176;27.548;2024-01-30T04:04:37;24.05;;;14.25;;
48805;SDS011;34625;47.176;27.548;2024-01-30T04:07:03;25.58;;;16.00;;
48805;SDS011;34625;47.176;27.548;2024-01-30T04:09:29;25.58;;;15.75;;
48805;SDS011;34625;47.176;27.548;2024-01-30T04:11:55;26.20;;;15.52;;
48805;SDS011;34625;47.176;27.548;2024-01-30T04:14:21;31.58;;;18.45;;
48805;SDS011;34625;47.176;27.548;2024-01-30T04:16:48;25.40;;;15.68;;
48805;SDS011;34625;47.176;27.548;2024-01-30T04:19:14;26.67;;;15.50;;
48805;SDS011;34625;47.176;27.548;2024-01-30T04:21:40;24.77;;;15.30;;
48805;SDS011;34625;47.176;27.548;2024-01-30T04:24:06;27.30;;;16.88;;
48805;SDS011;34625;47.176;27.548;2024-01-30T04:26:32;28.92;;;15.02;;
48805;SDS011;34625;47.176;27.548;2024-01-30T04:28:58;26.50;;;16.73;;
48805;SDS011;34625;47.176;27.548;2024-01-30T04:31:24;31.20;;;16.65;;
48805;SDS011;34625;47.176;27.548;2024-01-30T04:33:50;26.02;;;15.68;;
48805;SDS011;34625;47.176;27.548;2024-01-30T04:36:16;28.35;;;17.65;;
48805;SDS011;34625;47.176;27.548;2024-01-30T04:38:42;30.38;;;18.45;;
48805;SDS011;34625;47.176;27.548;2024-01-30T04:41:08;31.20;;;17.92;;
48805;SDS011;34625;47.176;27.548;2024-01-30T04:43:34;24.98;;;15.98;;
48805;SDS011;34625;47.176;27.548;2024-01-30T04:46:01;25.80;;;15.38;;
48805;SDS011;34625;47.176;27.548;2024-01-30T04:48:27;24.48;;;15.13;;
48805;SDS011;34625;47.176;27.548;2024-01-30T04:50:53;25.73;;;15.60;;
48805;SDS011;34625;47.176;27.548;2024-01-30T04:53:20;30.73;;;16.40;;
48805;SDS011;34625;47.176;27.548;2024-01-30T04:55:46;27.80;;;17.40;;
48805;SDS011;34625;47.176;27.548;2024-01-30T04:58:12;25.52;;;16.35;;
48805;SDS011;34625;47.176;27.548;2024-01-30T05:00:38;31.88;;;17.15;;
48805;SDS011;34625;47.176;27.548;2024-01-30T05:03:04;27.05;;;17.23;;
48805;SDS011;34625;47.176;27.548;2024-01-30T05:05:30;28.35;;;16.85;;
48805;SDS011;34625;47.176;27.548;2024-01-30T05:07:56;33.10;;;19.05;;
48805;SDS011;34625;47.176;27.548;2024-01-30T05:10:22;30.50;;;17.27;;
48805;SDS011;34625;47.176;27.548;2024-01-30T05:12:49;31.50;;;17.40;;
48805;SDS011;34625;47.176;27.548;2024-01-30T05:15:15;29.48;;;16.73;;
48805;SDS011;34625;47.176;27.548;2024-01-30T05:17:41;29.92;;;17.38;;
48805;SDS011;34625;47.176;27.548;2024-01-30T05:20:07;23.17;;;13.85;;
48805;SDS011;34625;47.176;27.548;2024-01-30T05:22:34;24.88;;;14.77;;
48805;SDS011;34625;47.176;27.548;2024-01-30T05:25:00;19.90;;;12.50;;
48805;SDS011;34625;47.176;27.548;2024-01-30T05:27:27;21.83;;;13.15;;
48805;SDS011;34625;47.176;27.548;2024-01-30T05:29:53;22.60;;;13.80;;
48805;SDS011;34625;47.176;27.548;2024-01-30T05:32:19;18.27;;;12.10;;
48805;SDS011;34625;47.176;27.548;2024-01-30T05:34:45;16.90;;;11.35;;
48805;SDS011;34625;47.176;27.548;2024-01-30T05:37:11;18.67;;;11.55;;
48805;SDS011;34625;47.176;27.548;2024-01-30T05:39:42;19.42;;;12.23;;
48805;SDS011;34625;47.176;27.548;2024-01-30T05:42:08;17.13;;;11.68;;
48805;SDS011;34625;47.176;27.548;2024-01-30T05:44:35;17.92;;;12.13;;
48805;SDS011;34625;47.176;27.548;2024-01-30T05:47:01;19.10;;;13.05;;
48805;SDS011;34625;47.176;27.548;2024-01-30T05:49:27;19.33;;;11.18;;
48805;SDS011;34625;47.176;27.548;2024-01-30T05:51:53;19.33;;;11.98;;
48805;SDS011;34625;47.176;27.548;2024-01-30T05:54:19;19.88;;;12.73;;
48805;SDS011;34625;47.176;27.548;2024-01-30T05:56:45;21.55;;;11.88;;
48805;SDS011;34625;47.176;27.548;2024-01-30T05:59:11;15.82;;;10.95;;
48805;SDS011;34625;47.176;27.548;2024-01-30T06:01:37;18.02;;;11.27;;
48805;SDS011;34625;47.176;27.548;2024-01-30T06:04:03;17.73;;;11.93;;
48805;SDS011;34625;47.176;27.548;2024-01-30T06:06:30;21.33;;;12.60;;
48805;SDS011;34625;47.176;27.548;2024-01-30T06:08:56;21.48;;;11.32;;
48805;SDS011;34625;47.176;27.548;2024-01-30T06:11:22;16.42;;;11.00;;
48805;SDS011;34625;47.176;27.548;2024-01-30T06:13:48;4.95;;;3.50;;
48805;SDS011;34625;47.176;27.548;2024-01-30T06:16:14;5.25;;;4.30;;
48805;SDS011;34625;47.176;27.548;2024-01-30T06:18:40;5.32;;;4.45;;
48805;SDS011;34625;47.176;27.548;2024-01-30T06:21:06;7.00;;;4.80;;
48805;SDS011;34625;47.176;27.548;2024-01-30T06:23:32;7.85;;;5.15;;
48805;SDS011;34625;47.176;27.548;2024-01-30T06:25:59;7.50;;;5.07;;
48805;SDS011;34625;47.176;27.548;2024-01-30T06:28:25;7.57;;;5.88;;
48805;SDS011;34625;47.176;27.548;2024-01-30T06:30:51;8.30;;;6.28;;
48805;SDS011;34625;47.176;27.548;2024-01-30T06:33:17;10.05;;;5.63;;
48805;SDS011;34625;47.176;27.548;2024-01-30T06:35:43;8.15;;;6.50;;
48805;SDS011;34625;47.176;27.548;2024-01-30T06:38:11;10.60;;;7.70;;
48805;SDS011;34625;47.176;27.548;2024-01-30T06:40:38;9.20;;;7.32;;
48805;SDS011;34625;47.176;27.548;2024-01-30T06:43:04;16.00;;;8.73;;
48805;SDS011;34625;47.176;27.548;2024-01-30T06:45:30;13.13;;;9.98;;
48805;SDS011;34625;47.176;27.548;2024-01-30T06:47:56;10.27;;;7.95;;
48805;SDS011;34625;47.176;27.548;2024-01-30T06:50:23;13.98;;;11.98;;
48805;SDS011;34625;47.176;27.548;2024-01-30T06:52:49;32.33;;;21.20;;
48805;SDS011;34625;47.176;27.548;2024-01-30T06:55:15;43.05;;;23.73;;
48805;SDS011;34625;47.176;27.548;2024-01-30T06:57:41;33.70;;;23.15;;
48805;SDS011;34625;47.176;27.548;2024-01-30T07:00:07;34.47;;;23.10;;
48805;SDS011;34625;47.176;27.548;2024-01-30T07:02:34;34.92;;;22.65;;
48805;SDS011;34625;47.176;27.548;2024-01-30T07:05:00;36.40;;;22.27;;
48805;SDS011;34625;47.176;27.548;2024-01-30T07:07:26;31.10;;;18.98;;
48805;SDS011;34625;47.176;27.548;2024-01-30T07:09:52;36.50;;;19.75;;
48805;SDS011;34625;47.176;27.548;2024-01-30T07:12:24;40.95;;;22.23;;
48805;SDS011;34625;47.176;27.548;2024-01-30T07:14:51;31.90;;;20.27;;
48805;SDS011;34625;47.176;27.548;2024-01-30T07:17:17;27.35;;;17.35;;
48805;SDS011;34625;47.176;27.548;2024-01-30T07:19:43;26.92;;;16.33;;
48805;SDS011;34625;47.176;27.548;2024-01-30T07:22:09;23.27;;;14.40;;
48805;SDS011;34625;47.176;27.548;2024-01-30T07:24:35;28.08;;;15.38;;
48805;SDS011;34625;47.176;27.548;2024-01-30T07:27:02;20.52;;;13.65;;
48805;SDS011;34625;47.176;27.548;2024-01-30T07:29:28;20.52;;;14.20;;
48805;SDS011;34625;47.176;27.548;2024-01-30T07:31:54;23.60;;;13.90;;
48805;SDS011;34625;47.176;27.548;2024-01-30T07:34:20;19.95;;;11.82;;
48805;SDS011;34625;47.176;27.548;2024-01-30T07:36:46;16.88;;;11.55;;
48805;SDS011;34625;47.176;27.548;2024-01-30T07:39:12;17.45;;;11.25;;
48805;SDS011;34625;47.176;27.548;2024-01-30T07:41:38;17.60;;;11.10;;
48805;SDS011;34625;47.176;27.548;2024-01-30T07:44:04;16.92;;;11.23;;
48805;SDS011;34625;47.176;27.548;2024-01-30T07:46:30;18.20;;;10.77;;
48805;SDS011;34625;47.176;27.548;2024-01-30T07:48:56;17.05;;;11.27;;
48805;SDS011;34625;47.176;27.548;2024-01-30T07:51:22;16.90;;;12.30;;
48805;SDS011;34625;47.176;27.548;2024-01-30T07:53:49;21.77;;;13.07;;
48805;SDS011;34625;47.176;27.548;2024-01-30T07:56:15;18.25;;;12.15;;
48805;SDS011;34625;47.176;27.548;2024-01-30T07:58:41;18.20;;;12.85;;
48805;SDS011;34625;47.176;27.548;2024-01-30T08:01:08;19.30;;;12.13;;
48805;SDS011;34625;47.176;27.548;2024-01-30T08:03:34;20.88;;;12.38;;
48805;SDS011;34625;47.176;27.548;2024-01-30T08:06:00;21.23;;;12.30;;
48805;SDS011;34625;47.176;27.548;2024-01-30T08:08:26;19.45;;;12.10;;
48805;SDS011;34625;47.176;27.548;2024-01-30T08:10:52;22.60;;;13.23;;
48805;SDS011;34625;47.176;27.548;2024-01-30T08:13:18;24.60;;;14.75;;
48805;SDS011;34625;47.176;27.548;2024-01-30T08:15:44;26.45;;;16.90;;
48805;SDS011;34625;47.176;27.548;2024-01-30T08:18:11;24.80;;;16.88;;
48805;SDS011;34625;47.176;27.548;2024-01-30T08:20:37;23.42;;;14.95;;
48805;SDS011;34625;47.176;27.548;2024-01-30T08:23:03;24.25;;;15.73;;
48805;SDS011;34625;47.176;27.548;2024-01-30T08:25:29;24.58;;;16.30;;
48805;SDS011;34625;47.176;27.548;2024-01-30T08:27:55;4.88;;;3.63;;
48805;SDS011;34625;47.176;27.548;2024-01-30T08:30:22;7.57;;;4.10;;
48805;SDS011;34625;47.176;27.548;2024-01-30T08:32:48;6.47;;;4.90;;
48805;SDS011;34625;47.176;27.548;2024-01-30T08:35:14;6.05;;;4.47;;
48805;SDS011;34625;47.176;27.548;2024-01-30T08:37:41;7.57;;;4.95;;
48805;SDS011;34625;47.176;27.548;2024-01-30T08:40:07;10.05;;;5.85;;
48805;SDS011;34625;47.176;27.548;2024-01-30T08:42:34;6.90;;;6.15;;
48805;SDS011;34625;47.176;27.548;2024-01-30T08:45:00;7.63;;;6.03;;
48805;SDS011;34625;47.176;27.548;2024-01-30T08:47:26;7.80;;;6.30;;
48805;SDS011;34625;47.176;27.548;2024-01-30T08:49:52;15.95;;;8.52;;
48805;SDS011;34625;47.176;27.548;2024-01-30T08:52:18;10.75;;;9.48;;
48805;SDS011;34625;47.176;27.548;2024-01-30T08:54:45;14.10;;;10.10;;
48805;SDS011;34625;47.176;27.548;2024-01-30T08:57:11;12.93;;;9.27;;
48805;SDS011;34625;47.176;27.548;2024-01-30T08:59:37;21.58;;;14.95;;
48805;SDS011;34625;47.176;27.548;2024-01-30T09:02:03;13.02;;;10.68;;
48805;SDS011;34625;47.176;27.548;2024-01-30T09:04:30;14.35;;;9.63;;
48805;SDS011;34625;47.176;27.548;2024-01-30T09:06:56;14.07;;;8.98;;
48805;SDS011;34625;47.176;27.548;2024-01-30T09:09:22;12.40;;;9.57;;
48805;SDS011;34625;47.176;27.548;2024-01-30T09:11:48;14.45;;;9.15;;
48805;SDS011;34625;47.176;27.548;2024-01-30T09:14:14;10.73;;;9.40;;
48805;SDS011;34625;47.176;27.548;2024-01-30T09:16:40;12.55;;;9.68;;
48805;SDS011;34625;47.176;27.548;2024-01-30T09:19:07;11.00;;;8.23;;
48805;SDS011;34625;47.176;27.548;2024-01-30T09:21:33;9.85;;;8.32;;
48805;SDS011;34625;47.176;27.548;2024-01-30T09:24:02;9.38;;;8.02;;
48805;SDS011;34625;47.176;27.548;2024-01-30T09:26:32;8.75;;;7.15;;
48805;SDS011;34625;47.176;27.548;2024-01-30T09:28:58;9.07;;;8.15;;
48805;SDS011;34625;47.176;27.548;2024-01-30T09:31:24;9.73;;;8.00;;
48805;SDS011;34625;47.176;27.548;2024-01-30T09:33:50;11.02;;;7.47;;
48805;SDS011;34625;47.176;27.548;2024-01-30T09:36:19;12.30;;;7.97;;
48805;SDS011;34625;47.176;27.548;2024-01-30T09:38:45;10.65;;;7.82;;
48805;SDS011;34625;47.176;27.548;2024-01-30T09:41:12;9.82;;;7.13;;
48805;SDS011;34625;47.176;27.548;2024-01-30T09:43:38;10.35;;;8.27;;
48805;SDS011;34625;47.176;27.548;2024-01-30T09:46:08;9.95;;;7.30;;
48805;SDS011;34625;47.176;27.548;2024-01-30T09:48:41;11.98;;;7.47;;
48805;SDS011;34625;47.176;27.548;2024-01-30T09:51:09;10.95;;;6.85;;
48805;SDS011;34625;47.176;27.548;2024-01-30T09:53:36;8.52;;;7.03;;
48805;SDS011;34625;47.176;27.548;2024-01-30T09:56:03;8.27;;;6.78;;
48805;SDS011;34625;47.176;27.548;2024-01-30T09:58:30;12.52;;;7.55;;
48805;SDS011;34625;47.176;27.548;2024-01-30T10:00:57;12.38;;;6.93;;
48805;SDS011;34625;47.176;27.548;2024-01-30T10:03:23;9.95;;;7.55;;
48805;SDS011;34625;47.176;27.548;2024-01-30T10:05:52;8.82;;;5.80;;
48805;SDS011;34625;47.176;27.548;2024-01-30T10:08:18;9.52;;;6.93;;
48805;SDS011;34625;47.176;27.548;2024-01-30T10:10:47;12.05;;;6.10;;
48805;SDS011;34625;47.176;27.548;2024-01-30T10:13:15;10.23;;;6.18;;
48805;SDS011;34625;47.176;27.548;2024-01-30T10:15:42;11.27;;;7.15;;
48805;SDS011;34625;47.176;27.548;2024-01-30T10:18:08;9.18;;;6.20;;
48805;SDS011;34625;47.176;27.548;2024-01-30T10:20:35;8.27;;;6.07;;
48805;SDS011;34625;47.176;27.548;2024-01-30T10:23:02;9.20;;;5.95;;
48805;SDS011;34625;47.176;27.548;2024-01-30T10:25:30;7.97;;;6.20;;
48805;SDS011;34625;47.176;27.548;2024-01-30T10:27:57;9.90;;;6.15;;
48805;SDS011;34625;47.176;27.548;2024-01-30T10:30:24;8.95;;;6.78;;
48805;SDS011;34625;47.176;27.548;2024-01-30T10:32:50;9.05;;;6.20;;
48805;SDS011;34625;47.176;27.548;2024-01-30T10:35:17;8.57;;;6.03;;
48805;SDS011;34625;47.176;27.548;2024-01-30T10:37:43;8.43;;;6.18;;
48805;SDS011;34625;47.176;27.548;2024-01-30T10:40:12;7.72;;;4.78;;
48805;SDS011;34625;47.176;27.548;2024-01-30T10:42:40;8.20;;;4.95;;
48805;SDS011;34625;47.176;27.548;2024-01-30T10:45:09;5.43;;;4.45;;
48805;SDS011;34625;47.176;27.548;2024-01-30T10:47:40;6.53;;;4.82;;
48805;SDS011;34625;47.176;27.548;2024-01-30T10:50:09;6.60;;;4.80;;
48805;SDS011;34625;47.176;27.548;2024-01-30T10:52:36;7.43;;;4.93;;
48805;SDS011;34625;47.176;27.548;2024-01-30T10:55:02;7.72;;;4.10;;
48805;SDS011;34625;47.176;27.548;2024-01-30T10:57:31;5.32;;;4.28;;
48805;SDS011;34625;47.176;27.548;2024-01-30T11:00:02;6.75;;;4.32;;
48805;SDS011;34625;47.176;27.548;2024-01-30T11:02:36;5.28;;;4.78;;
48805;SDS011;34625;47.176;27.548;2024-01-30T11:05:07;5.78;;;4.43;;
48805;SDS011;34625;47.176;27.548;2024-01-30T11:07:34;6.68;;;4.55;;
48805;SDS011;34625;47.176;27.548;2024-01-30T11:10:03;5.60;;;3.85;;
48805;SDS011;34625;47.176;27.548;2024-01-30T11:12:32;9.68;;;4.90;;
48805;SDS011;34625;47.176;27.548;2024-01-30T11:17:43;12.10;;;4.72;;
48805;SDS011;34625;47.176;27.548;2024-01-30T11:20:14;9.15;;;5.20;;
48805;SDS011;34625;47.176;27.548;2024-01-30T11:23:01;8.25;;;4.68;;
48805;SDS011;34625;47.176;27.548;2024-01-30T11:25:31;9.38;;;5.38;;
48805;SDS011;34625;47.176;27.548;2024-01-30T11:27:58;9.80;;;4.75;;
48805;SDS011;34625;47.176;27.548;2024-01-30T11:30:25;11.70;;;5.13;;
48805;SDS011;34625;47.176;27.548;2024-01-30T11:33:06;12.35;;;5.50;;
48805;SDS011;34625;47.176;27.548;2024-01-30T11:35:37;10.20;;;5.18;;
48805;SDS011;34625;47.176;27.548;2024-01-30T11:38:08;13.80;;;5.35;;
48805;SDS011;34625;47.176;27.548;2024-01-30T11:40:37;7.25;;;4.15;;
48805;SDS011;34625;47.176;27.548;2024-01-30T11:43:04;9.57;;;4.00;;
48805;SDS011;34625;47.176;27.548;2024-01-30T11:45:31;11.10;;;3.92;;
48805;SDS011;34625;47.176;27.548;2024-01-30T11:47:59;9.43;;;3.80;;
48805;SDS011;34625;47.176;27.548;2024-01-30T11:50:32;3.63;;;3.30;;
48805;SDS011;34625;47.176;27.548;2024-01-30T11:52:59;8.07;;;4.20;;
48805;SDS011;34625;47.176;27.548;2024-01-30T11:55:26;8.85;;;4.63;;
48805;SDS011;34625;47.176;27.548;2024-01-30T11:57:57;8.38;;;4.05;;
48805;SDS011;34625;47.176;27.548;2024-01-30T12:00:24;8.80;;;4.60;;
48805;SDS011;34625;47.176;27.548;2024-01-30T12:02:51;5.93;;;3.83;;
48805;SDS011;34625;47.176;27.548;2024-01-30T12:05:30;14.82;;;5.60;;
48805;SDS011;34625;47.176;27.548;2024-01-30T12:07:56;17.70;;;6.20;;
48805;SDS011;34625;47.176;27.548;2024-01-30T12:10:25;5.28;;;3.05;;
48805;SDS011;34625;47.176;27.548;2024-01-30T12:12:52;12.02;;;3.30;;
48805;SDS011;34625;47.176;27.548;2024-01-30T12:15:19;2.42;;;1.73;;
48805;SDS011;34625;47.176;27.548;2024-01-30T12:17:47;3.97;;;3.10;;
48805;SDS011;34625;47.176;27.548;2024-01-30T12:20:14;44.17;;;5.40;;
48805;SDS011;34625;47.176;27.548;2024-01-30T12:22:43;9.68;;;4.05;;
48805;SDS011;34625;47.176;27.548;2024-01-30T12:25:11;7.38;;;3.90;;
48805;SDS011;34625;47.176;27.548;2024-01-30T12:27:39;5.50;;;3.83;;
48805;SDS011;34625;47.176;27.548;2024-01-30T12:30:08;4.45;;;2.83;;
48805;SDS011;34625;47.176;27.548;2024-01-30T12:32:35;5.45;;;4.07;;
48805;SDS011;34625;47.176;27.548;2024-01-30T12:35:02;4.65;;;3.63;;
48805;SDS011;34625;47.176;27.548;2024-01-30T12:37:29;4.00;;;3.35;;
48805;SDS011;34625;47.176;27.548;2024-01-30T12:39:56;5.55;;;4.03;;
48805;SDS011;34625;47.176;27.548;2024-01-30T12:42:22;7.75;;;4.28;;
48805;SDS011;34625;47.176;27.548;2024-01-30T12:44:49;6.05;;;3.92;;
48805;SDS011;34625;47.176;27.548;2024-01-30T12:47:15;4.82;;;3.13;;
48805;SDS011;34625;47.176;27.548;2024-01-30T12:49:44;7.70;;;4.63;;
48805;SDS011;34625;47.176;27.548;2024-01-30T12:52:11;6.68;;;4.63;;
48805;SDS011;34625;47.176;27.548;2024-01-30T12:54:38;5.93;;;3.40;;
48805;SDS011;34625;47.176;27.548;2024-01-30T12:57:05;5.82;;;3.75;;
48805;SDS011;34625;47.176;27.548;2024-01-30T12:59:31;6.07;;;3.75;;
48805;SDS011;34625;47.176;27.548;2024-01-30T13:01:58;8.18;;;3.33;;
48805;SDS011;34625;47.176;27.548;2024-01-30T13:04:25;4.90;;;3.67;;
48805;SDS011;34625;47.176;27.548;2024-01-30T13:06:52;7.50;;;4.70;;
48805;SDS011;34625;47.176;27.548;2024-01-30T13:09:18;9.80;;;4.68;;
48805;SDS011;34625;47.176;27.548;2024-01-30T13:11:45;5.80;;;4.63;;
48805;SDS011;34625;47.176;27.548;2024-01-30T13:14:11;5.20;;;4.20;;
48805;SDS011;34625;47.176;27.548;2024-01-30T13:16:38;5.90;;;4.18;;
48805;SDS011;34625;47.176;27.548;2024-01-30T13:19:04;6.53;;;5.05;;
48805;SDS011;34625;47.176;27.548;2024-01-30T13:21:30;5.50;;;4.57;;
48805;SDS011;34625;47.176;27.548;2024-01-30T13:23:56;8.40;;;4.97;;
48805;SDS011;34625;47.176;27.548;2024-01-30T13:26:22;4.90;;;3.63;;
48805;SDS011;34625;47.176;27.548;2024-01-30T13:28:48;5.53;;;3.90;;
48805;SDS011;34625;47.176;27.548;2024-01-30T13:31:15;9.48;;;4.07;;
48805;SDS011;34625;47.176;27.548;2024-01-30T13:33:41;5.80;;;4.07;;
48805;SDS011;34625;47.176;27.548;2024-01-30T13:36:08;8.52;;;4.57;;
48805;SDS011;34625;47.176;27.548;2024-01-30T13:38:36;6.47;;;4.43;;
48805;SDS011;34625;47.176;27.548;2024-01-30T13:41:02;7.15;;;5.10;;
48805;SDS011;34625;47.176;27.548;2024-01-30T13:43:28;7.28;;;4.65;;
48805;SDS011;34625;47.176;27.548;2024-01-30T13:45:54;7.25;;;5.22;;
48805;SDS011;34625;47.176;27.548;2024-01-30T13:48:20;7.03;;;4.93;;
48805;SDS011;34625;47.176;27.548;2024-01-30T13:50:47;6.90;;;4.93;;
48805;SDS011;34625;47.176;27.548;2024-01-30T13:53:13;8.48;;;5.55;;
48805;SDS011;34625;47.176;27.548;2024-01-30T13:55:39;9.07;;;5.20;;
48805;SDS011;34625;47.176;27.548;2024-01-30T13:58:05;7.13;;;5.07;;
48805;SDS011;34625;47.176;27.548;2024-01-30T14:00:33;9.40;;;5.18;;
48805;SDS011;34625;47.176;27.548;2024-01-30T14:02:59;7.93;;;4.82;;
48805;SDS011;34625;47.176;27.548;2024-01-30T14:05:26;10.70;;;5.68;;
48805;SDS011;34625;47.176;27.548;2024-01-30T14:07:55;7.20;;;5.53;;
48805;SDS011;34625;47.176;27.548;2024-01-30T14:10:23;8.23;;;5.00;;
48805;SDS011;34625;47.176;27.548;2024-01-30T14:12:50;7.03;;;5.22;;
48805;SDS011;34625;47.176;27.548;2024-01-30T14:15:16;9.27;;;5.32;;
48805;SDS011;34625;47.176;27.548;2024-01-30T14:17:46;8.15;;;5.50;;
48805;SDS011;34625;47.176;27.548;2024-01-30T14:20:14;8.70;;;5.70;;